Aérodrome :
LOGIN :

S'inscrire | Disclaimer

   EN    FR    IT 

 










Légende :    VFR   VFR Marginal   IFR   IFR Intensif   IFR Très Intensif
Visi : 
Plafond : 
>= 8 km
>= 3000ft
5 à 8 km
1000 à 3000 ft
1500m à 5 km
500 à 1000 ft
800 à 1500m
200 à 500 ft
< 800m
< 200 ft
Symboles :   Orages  Brouillard  Fortes neiges  Fortes précipitations  Vent > 20 kt
SIGMETs :   Divers  Orages  Givrage  Turbulence  Onde Orograph.  Cendres Volcan.







- Altitude de l'aérodrome : 821 ft
- Code IATA : LYS
- Voir les cartes d'approche


LFLL - Lyon St Exupéry / Satolas

DERNIER METAR :
  • 192100Z 25002KT 1600 SN BKN008 01/M00 Q1003 BECMG 6000 -SN SCT012 BKN040

METARs EXPIRÉS :
  • 192030Z 23002KT 8000 -SN FEW010 SCT030 BKN040 01/M00 Q1003 TEMPO 3000
  • 192000Z VRB03KT 7000 -SN FEW008 BKN028 BKN043 01/M00 Q1003 TEMPO 3000
  • 191930Z 30003KT 5000 -SN FEW009 BKN016 BKN042 01/M00 Q1004 NOSIG
  • 191900Z 31004KT 6000 -SN FEW009 BKN015 BKN040 01/M00 Q1004 NOSIG

TAF AMD TAF LFLL
Valide du 19 à 20h jusqu'au 21 à 00h UTC


192013Z 1920/2024 VRB02KT 6000 -SN SCT012 BKN040
TEMPO 1920/2006 3000
PROB40
TEMPO 1923/2003 1200 SN BKN009 OVC030
BECMG 2007/2009 16008KT 9999 NSW
TEMPO 2021/2024 4000 RA BKN009 OVC030
Pas de NOTAMs connus pour ce terrain.
1 SIGMET publié pour la FIR Marseille (LFMM) :
 
Orages noyés dans la masse
LFMM SIGMET 8 VALID 192200/200200 LFPW
LFMM MARSEILLE FIR/UIR EMBD TS FCST SE OF LINE N4045 E00800 - N3900 E00545 TOP FL330 MOV E 25KT NC=



MET'MAP, la Météo Aéronautique d'un coup d'oeil ! - Copyright ORBIFLY Décembre 2007 - Disclaimer

ORBIFLY MET'MAP TEAM :

Programmation & Développement : Alexandra Zaïnal
Conception & Développement : Baudouin d'Aumeries
Co-Programmation & Développement : Marc-Olivier Méhu
Soutien technique & logistique : Manuel Goepfert

Contact : metmap@orbifly.com




SOURCES & CREDITS :

   NOAA